sensor_id;sensor_type;location;lat;lon;timestamp;pressure;altitude;pressure_sealevel;temperature;humidity
15314;BME280;7757;52.626;4.746;2022-08-18T05:52:29;101263.94;;;23.64;70.45
15314;BME280;7757;52.626;4.746;2022-08-18T05:55:00;101259.69;;;23.88;68.23
15314;BME280;7757;52.626;4.746;2022-08-18T05:57:48;101262.38;;;23.78;68.38
15314;BME280;7757;52.626;4.746;2022-08-18T06:00:16;101261.00;;;23.76;68.81
15314;BME280;7757;52.626;4.746;2022-08-18T06:02:46;101259.91;;;22.87;72.34
15314;BME280;7757;52.626;4.746;2022-08-18T06:05:20;101263.78;;;24.23;66.62
15314;BME280;7757;52.626;4.746;2022-08-18T06:07:53;101274.66;;;23.76;69.19
15314;BME280;7757;52.626;4.746;2022-08-18T06:10:21;101261.84;;;23.76;68.39
15314;BME280;7757;52.626;4.746;2022-08-18T06:12:49;101268.72;;;22.94;71.99
15314;BME280;7757;52.626;4.746;2022-08-18T06:15:22;101277.19;;;22.97;71.87
15314;BME280;7757;52.626;4.746;2022-08-18T06:18:03;101290.28;;;23.22;72.00
15314;BME280;7757;52.626;4.746;2022-08-18T06:20:43;101277.34;;;23.39;69.99
15314;BME280;7757;52.626;4.746;2022-08-18T06:23:20;101274.22;;;22.99;72.29
15314;BME280;7757;52.626;4.746;2022-08-18T06:25:56;101274.72;;;23.49;70.57
15314;BME280;7757;52.626;4.746;2022-08-18T06:28:36;101271.06;;;24.12;68.52
15314;BME280;7757;52.626;4.746;2022-08-18T06:31:15;101261.66;;;23.93;68.83
15314;BME280;7757;52.626;4.746;2022-08-18T06:33:49;101272.19;;;23.74;70.04
15314;BME280;7757;52.626;4.746;2022-08-18T06:36:27;101260.97;;;23.39;70.46
15314;BME280;7757;52.626;4.746;2022-08-18T06:39:03;101274.25;;;23.57;70.27
15314;BME280;7757;52.626;4.746;2022-08-18T06:41:35;101272.81;;;22.69;72.83
15314;BME280;7757;52.626;4.746;2022-08-18T06:44:08;101273.84;;;23.75;69.68
15314;BME280;7757;52.626;4.746;2022-08-18T06:46:40;101281.66;;;23.62;69.33
15314;BME280;7757;52.626;4.746;2022-08-18T06:49:10;101282.72;;;23.98;67.73
15314;BME280;7757;52.626;4.746;2022-08-18T06:51:37;101285.59;;;23.17;72.26
15314;BME280;7757;52.626;4.746;2022-08-18T06:54:07;101282.44;;;23.57;70.80
15314;BME280;7757;52.626;4.746;2022-08-18T06:56:53;101282.38;;;22.72;72.05
15314;BME280;7757;52.626;4.746;2022-08-18T06:59:23;101285.38;;;22.32;75.21
15314;BME280;7757;52.626;4.746;2022-08-18T07:01:52;101285.72;;;23.59;70.83
15314;BME280;7757;52.626;4.746;2022-08-18T07:04:37;101292.38;;;23.42;70.65
15314;BME280;7757;52.626;4.746;2022-08-18T07:07:23;101287.88;;;23.57;70.13
15314;BME280;7757;52.626;4.746;2022-08-18T07:09:55;101286.81;;;23.58;69.62
15314;BME280;7757;52.626;4.746;2022-08-18T07:12:24;101293.63;;;23.56;69.69
15314;BME280;7757;52.626;4.746;2022-08-18T07:14:52;101303.19;;;23.58;70.02
15314;BME280;7757;52.626;4.746;2022-08-18T07:17:22;101297.91;;;23.78;69.34
15314;BME280;7757;52.626;4.746;2022-08-18T07:19:55;101298.03;;;23.99;68.71
15314;BME280;7757;52.626;4.746;2022-08-18T07:22:23;101299.88;;;23.88;68.58
15314;BME280;7757;52.626;4.746;2022-08-18T07:24:51;101302.84;;;23.81;68.90
15314;BME280;7757;52.626;4.746;2022-08-18T07:27:29;101299.34;;;23.91;68.54
15314;BME280;7757;52.626;4.746;2022-08-18T07:30:08;101313.38;;;23.68;69.39
15314;BME280;7757;52.626;4.746;2022-08-18T07:32:39;101308.69;;;23.63;69.69
15314;BME280;7757;52.626;4.746;2022-08-18T07:35:08;101311.06;;;23.50;70.37
15314;BME280;7757;52.626;4.746;2022-08-18T07:37:41;101316.53;;;23.28;71.52
15314;BME280;7757;52.626;4.746;2022-08-18T07:40:21;101309.34;;;23.44;70.94
15314;BME280;7757;52.626;4.746;2022-08-18T07:42:55;101311.13;;;22.41;72.63
15314;BME280;7757;52.626;4.746;2022-08-18T07:45:28;101308.41;;;23.65;69.62
15314;BME280;7757;52.626;4.746;2022-08-18T07:48:01;101313.25;;;23.89;69.12
15314;BME280;7757;52.626;4.746;2022-08-18T07:50:33;101309.22;;;23.60;69.68
15314;BME280;7757;52.626;4.746;2022-08-18T07:53:07;101304.25;;;23.89;68.45
15314;BME280;7757;52.626;4.746;2022-08-18T07:55:36;101306.25;;;24.04;68.35
15314;BME280;7757;52.626;4.746;2022-08-18T07:58:14;101316.38;;;24.03;67.99
15314;BME280;7757;52.626;4.746;2022-08-18T08:00:47;101324.63;;;24.55;67.20
15314;BME280;7757;52.626;4.746;2022-08-18T08:03:24;101322.78;;;24.71;65.47
15314;BME280;7757;52.626;4.746;2022-08-18T08:06:01;101321.97;;;24.75;65.39
15314;BME280;7757;52.626;4.746;2022-08-18T08:08:36;101325.09;;;24.94;64.53
15314;BME280;7757;52.626;4.746;2022-08-18T08:11:12;101332.19;;;24.85;64.95
15314;BME280;7757;52.626;4.746;2022-08-18T08:13:52;101329.97;;;24.87;65.11
15314;BME280;7757;52.626;4.746;2022-08-18T08:16:32;101333.84;;;24.96;64.93
15314;BME280;7757;52.626;4.746;2022-08-18T08:19:09;101332.28;;;24.53;66.53
15314;BME280;7757;52.626;4.746;2022-08-18T08:21:45;101314.44;;;24.40;66.54
15314;BME280;7757;52.626;4.746;2022-08-18T08:24:18;101322.91;;;24.96;64.95
15314;BME280;7757;52.626;4.746;2022-08-18T08:26:52;101335.47;;;24.87;65.15
15314;BME280;7757;52.626;4.746;2022-08-18T08:29:32;101330.03;;;25.02;64.32
15314;BME280;7757;52.626;4.746;2022-08-18T08:32:03;101331.47;;;25.40;63.41
15314;BME280;7757;52.626;4.746;2022-08-18T08:34:34;101333.94;;;25.46;62.40
15314;BME280;7757;52.626;4.746;2022-08-18T08:37:08;101336.94;;;25.35;62.91
15314;BME280;7757;52.626;4.746;2022-08-18T08:39:40;101332.03;;;25.42;62.87
15314;BME280;7757;52.626;4.746;2022-08-18T08:42:13;101330.66;;;25.34;63.04
15314;BME280;7757;52.626;4.746;2022-08-18T08:44:47;101329.00;;;25.18;64.29
15314;BME280;7757;52.626;4.746;2022-08-18T08:47:19;101333.59;;;25.08;63.96
15314;BME280;7757;52.626;4.746;2022-08-18T08:49:50;101327.13;;;25.49;62.45
15314;BME280;7757;52.626;4.746;2022-08-18T08:52:22;101333.69;;;25.33;62.85
15314;BME280;7757;52.626;4.746;2022-08-18T08:54:52;101329.25;;;25.22;64.00
15314;BME280;7757;52.626;4.746;2022-08-18T08:57:25;101329.53;;;25.30;62.73
15314;BME280;7757;52.626;4.746;2022-08-18T08:59:56;101327.91;;;25.29;63.26
15314;BME280;7757;52.626;4.746;2022-08-18T09:02:32;101318.84;;;25.19;63.35
15314;BME280;7757;52.626;4.746;2022-08-18T09:05:06;101327.97;;;25.80;61.39
15314;BME280;7757;52.626;4.746;2022-08-18T09:07:47;101315.88;;;25.40;61.94
15314;BME280;7757;52.626;4.746;2022-08-18T09:10:44;101321.63;;;25.39;61.92
15314;BME280;7757;52.626;4.746;2022-08-18T09:13:31;101322.50;;;25.80;61.75
15314;BME280;7757;52.626;4.746;2022-08-18T09:16:16;101321.38;;;26.06;60.86
15314;BME280;7757;52.626;4.746;2022-08-18T09:18:52;101322.69;;;26.39;60.78
15314;BME280;7757;52.626;4.746;2022-08-18T09:21:31;101324.09;;;26.21;60.74
15314;BME280;7757;52.626;4.746;2022-08-18T09:24:07;101321.94;;;25.88;60.72
15314;BME280;7757;52.626;4.746;2022-08-18T09:26:41;101331.25;;;25.72;61.01
15314;BME280;7757;52.626;4.746;2022-08-18T09:29:15;101325.78;;;25.82;61.13
15314;BME280;7757;52.626;4.746;2022-08-18T09:35:02;101334.53;;;25.84;61.01
15314;BME280;7757;52.626;4.746;2022-08-18T09:37:47;101337.28;;;25.74;61.39
15314;BME280;7757;52.626;4.746;2022-08-18T09:40:45;101338.63;;;25.66;61.40
15314;BME280;7757;52.626;4.746;2022-08-18T09:43:33;101343.31;;;25.71;61.29
15314;BME280;7757;52.626;4.746;2022-08-18T09:46:02;101337.81;;;25.66;61.40
15314;BME280;7757;52.626;4.746;2022-08-18T09:48:33;101338.91;;;25.55;61.78
15314;BME280;7757;52.626;4.746;2022-08-18T09:54:17;101339.44;;;25.46;61.25
15314;BME280;7757;52.626;4.746;2022-08-18T09:57:16;101330.97;;;25.73;60.79
15314;BME280;7757;52.626;4.746;2022-08-18T10:03:21;101328.47;;;26.02;60.33
15314;BME280;7757;52.626;4.746;2022-08-18T10:05:58;101329.88;;;26.15;59.33
15314;BME280;7757;52.626;4.746;2022-08-18T10:08:54;101332.31;;;26.11;59.58
15314;BME280;7757;52.626;4.746;2022-08-18T10:11:39;101330.69;;;25.70;60.24
15314;BME280;7757;52.626;4.746;2022-08-18T10:14:22;101333.69;;;25.98;59.87
15314;BME280;7757;52.626;4.746;2022-08-18T10:16:57;101333.44;;;26.00;59.90
15314;BME280;7757;52.626;4.746;2022-08-18T10:19:33;101334.28;;;25.65;60.98
15314;BME280;7757;52.626;4.746;2022-08-18T10:22:07;101326.06;;;25.80;58.89
15314;BME280;7757;52.626;4.746;2022-08-18T10:24:37;101317.81;;;25.90;59.40
15314;BME280;7757;52.626;4.746;2022-08-18T10:27:11;101319.75;;;25.80;60.10
15314;BME280;7757;52.626;4.746;2022-08-18T10:29:58;101312.88;;;25.57;60.76
15314;BME280;7757;52.626;4.746;2022-08-18T10:32:44;101312.91;;;25.62;60.39
15314;BME280;7757;52.626;4.746;2022-08-18T10:38:21;101320.28;;;25.92;58.99
15314;BME280;7757;52.626;4.746;2022-08-18T10:40:53;101316.69;;;26.01;59.63
15314;BME280;7757;52.626;4.746;2022-08-18T10:43:29;101314.19;;;26.35;58.82
15314;BME280;7757;52.626;4.746;2022-08-18T10:45:57;101319.06;;;26.48;58.46
15314;BME280;7757;52.626;4.746;2022-08-18T10:48:25;101325.94;;;26.46;57.12
15314;BME280;7757;52.626;4.746;2022-08-18T10:51:00;101330.66;;;26.25;58.19
15314;BME280;7757;52.626;4.746;2022-08-18T10:53:34;101334.28;;;26.16;58.44
15314;BME280;7757;52.626;4.746;2022-08-18T10:56:09;101333.44;;;26.00;56.98
15314;BME280;7757;52.626;4.746;2022-08-18T10:58:57;101328.47;;;26.27;58.05
15314;BME280;7757;52.626;4.746;2022-08-18T11:01:45;101327.28;;;26.48;57.97
15314;BME280;7757;52.626;4.746;2022-08-18T11:04:25;101332.19;;;26.67;56.55
15314;BME280;7757;52.626;4.746;2022-08-18T11:07:00;101323.84;;;26.18;55.94
15314;BME280;7757;52.626;4.746;2022-08-18T11:09:29;101317.25;;;26.19;55.20
15314;BME280;7757;52.626;4.746;2022-08-18T11:11:59;101317.00;;;25.95;55.01
15314;BME280;7757;52.626;4.746;2022-08-18T11:14:45;101318.16;;;26.73;55.41
15314;BME280;7757;52.626;4.746;2022-08-18T11:17:22;101313.16;;;25.86;56.35
15314;BME280;7757;52.626;4.746;2022-08-18T11:19:54;101312.06;;;25.92;56.91
15314;BME280;7757;52.626;4.746;2022-08-18T11:22:22;101320.50;;;26.31;56.88
15314;BME280;7757;52.626;4.746;2022-08-18T11:24:51;101317.50;;;26.27;57.75
15314;BME280;7757;52.626;4.746;2022-08-18T11:27:19;101315.56;;;26.38;57.33
15314;BME280;7757;52.626;4.746;2022-08-18T11:29:46;101317.69;;;26.56;56.23
15314;BME280;7757;52.626;4.746;2022-08-18T11:32:19;101313.94;;;26.27;57.87
15314;BME280;7757;52.626;4.746;2022-08-18T11:34:51;101312.84;;;26.13;57.37
15314;BME280;7757;52.626;4.746;2022-08-18T11:37:21;101318.38;;;25.82;57.77
15314;BME280;7757;52.626;4.746;2022-08-18T11:39:53;101312.25;;;26.41;56.29
15314;BME280;7757;52.626;4.746;2022-08-18T11:42:27;101305.63;;;26.52;56.40
15314;BME280;7757;52.626;4.746;2022-08-18T11:44:54;101302.19;;;25.91;57.01
15314;BME280;7757;52.626;4.746;2022-08-18T11:47:27;101302.09;;;26.41;57.40
15314;BME280;7757;52.626;4.746;2022-08-18T11:49:56;101305.97;;;26.30;57.10
15314;BME280;7757;52.626;4.746;2022-08-18T11:52:26;101300.81;;;25.93;58.43
15314;BME280;7757;52.626;4.746;2022-08-18T11:55:00;101296.72;;;25.66;59.31
15314;BME280;7757;52.626;4.746;2022-08-18T11:57:37;101302.50;;;25.74;59.13
15314;BME280;7757;52.626;4.746;2022-08-18T12:03:27;101295.31;;;25.28;60.16
15314;BME280;7757;52.626;4.746;2022-08-18T12:05:57;101293.44;;;25.64;57.46
15314;BME280;7757;52.626;4.746;2022-08-18T12:08:31;101292.59;;;25.48;59.03
15314;BME280;7757;52.626;4.746;2022-08-18T12:11:06;101302.97;;;26.12;56.35
15314;BME280;7757;52.626;4.746;2022-08-18T12:13:42;101297.50;;;26.06;57.53
15314;BME280;7757;52.626;4.746;2022-08-18T12:16:13;101293.63;;;26.28;56.20
15314;BME280;7757;52.626;4.746;2022-08-18T12:18:40;101289.03;;;25.78;55.98
15314;BME280;7757;52.626;4.746;2022-08-18T12:21:08;101290.59;;;26.34;55.72
15314;BME280;7757;52.626;4.746;2022-08-18T12:23:38;101287.34;;;26.17;54.89
15314;BME280;7757;52.626;4.746;2022-08-18T12:26:07;101285.50;;;25.57;54.82
15314;BME280;7757;52.626;4.746;2022-08-18T12:28:34;101276.19;;;25.73;56.30
15314;BME280;7757;52.626;4.746;2022-08-18T12:31:01;101274.53;;;25.62;57.24
15314;BME280;7757;52.626;4.746;2022-08-18T12:33:27;101267.66;;;25.19;58.07
15314;BME280;7757;52.626;4.746;2022-08-18T12:35:54;101270.97;;;25.77;56.59
15314;BME280;7757;52.626;4.746;2022-08-18T12:38:20;101272.63;;;25.63;56.55
15314;BME280;7757;52.626;4.746;2022-08-18T12:40:47;101266.03;;;25.69;55.33
15314;BME280;7757;52.626;4.746;2022-08-18T12:43:15;101260.53;;;25.89;55.23
15314;BME280;7757;52.626;4.746;2022-08-18T12:45:42;101267.34;;;26.06;55.11
15314;BME280;7757;52.626;4.746;2022-08-18T12:48:08;101269.44;;;26.40;54.48
15314;BME280;7757;52.626;4.746;2022-08-18T12:50:37;101262.38;;;26.29;54.88
15314;BME280;7757;52.626;4.746;2022-08-18T12:53:04;101257.53;;;25.70;54.35
15314;BME280;7757;52.626;4.746;2022-08-18T12:55:35;101256.38;;;26.01;54.97
15314;BME280;7757;52.626;4.746;2022-08-18T12:58:01;101264.28;;;26.28;54.85
15314;BME280;7757;52.626;4.746;2022-08-18T13:00:31;101260.75;;;26.07;56.25
15314;BME280;7757;52.626;4.746;2022-08-18T13:02:57;101249.56;;;25.89;55.91
15314;BME280;7757;52.626;4.746;2022-08-18T13:05:24;101253.34;;;26.08;56.05
15314;BME280;7757;52.626;4.746;2022-08-18T13:07:52;101255.91;;;25.64;55.09
15314;BME280;7757;52.626;4.746;2022-08-18T13:10:19;101250.91;;;25.96;56.18
15314;BME280;7757;52.626;4.746;2022-08-18T13:12:45;101256.69;;;25.85;56.51
15314;BME280;7757;52.626;4.746;2022-08-18T13:15:12;101240.56;;;25.63;57.09
15314;BME280;7757;52.626;4.746;2022-08-18T13:17:40;101238.91;;;25.82;56.12
15314;BME280;7757;52.626;4.746;2022-08-18T13:20:09;101247.41;;;25.61;56.52
15314;BME280;7757;52.626;4.746;2022-08-18T13:22:36;101254.16;;;26.14;53.00
15314;BME280;7757;52.626;4.746;2022-08-18T13:25:06;101259.16;;;25.86;55.31
15314;BME280;7757;52.626;4.746;2022-08-18T13:27:34;101258.63;;;25.79;55.56
15314;BME280;7757;52.626;4.746;2022-08-18T13:30:02;101261.53;;;26.28;54.11
15314;BME280;7757;52.626;4.746;2022-08-18T13:32:29;101259.31;;;26.40;53.83
15314;BME280;7757;52.626;4.746;2022-08-18T13:34:59;101264.13;;;25.79;55.71
15314;BME280;7757;52.626;4.746;2022-08-18T13:37:25;101262.13;;;26.20;54.38
15314;BME280;7757;52.626;4.746;2022-08-18T13:39:56;101265.44;;;25.97;54.71
15314;BME280;7757;52.626;4.746;2022-08-18T13:42:23;101267.63;;;26.00;55.33
15314;BME280;7757;52.626;4.746;2022-08-18T13:44:50;101265.19;;;25.78;56.17
15314;BME280;7757;52.626;4.746;2022-08-18T13:47:16;101256.16;;;25.47;56.55
15314;BME280;7757;52.626;4.746;2022-08-18T13:49:43;101264.09;;;25.94;55.70
15314;BME280;7757;52.626;4.746;2022-08-18T13:52:11;101264.91;;;25.85;56.11
15314;BME280;7757;52.626;4.746;2022-08-18T13:54:39;101256.16;;;25.78;55.34
15314;BME280;7757;52.626;4.746;2022-08-18T13:57:06;101264.09;;;25.94;55.88
15314;BME280;7757;52.626;4.746;2022-08-18T13:59:33;101277.28;;;25.52;57.19
15314;BME280;7757;52.626;4.746;2022-08-18T14:02:01;101282.16;;;26.00;56.00
15314;BME280;7757;52.626;4.746;2022-08-18T14:04:30;101276.44;;;25.77;55.91
15314;BME280;7757;52.626;4.746;2022-08-18T14:06:56;101286.28;;;25.32;56.42
15314;BME280;7757;52.626;4.746;2022-08-18T14:09:27;101293.13;;;25.90;55.82
15314;BME280;7757;52.626;4.746;2022-08-18T14:11:54;101287.13;;;25.83;56.54
15314;BME280;7757;52.626;4.746;2022-08-18T14:14:21;101285.50;;;25.62;56.49
15314;BME280;7757;52.626;4.746;2022-08-18T14:16:47;101295.66;;;25.57;56.82
15314;BME280;7757;52.626;4.746;2022-08-18T14:19:14;101289.84;;;25.93;56.11
15314;BME280;7757;52.626;4.746;2022-08-18T14:21:58;101283.84;;;25.76;56.88
15314;BME280;7757;52.626;4.746;2022-08-18T14:24:44;101289.84;;;25.93;56.70
15314;BME280;7757;52.626;4.746;2022-08-18T14:27:30;101286.88;;;25.65;56.48
15314;BME280;7757;52.626;4.746;2022-08-18T14:29:59;101284.41;;;25.73;56.57
15314;BME280;7757;52.626;4.746;2022-08-18T14:32:26;101283.31;;;25.49;56.62
15314;BME280;7757;52.626;4.746;2022-08-18T14:34:55;101289.88;;;25.63;55.77
15314;BME280;7757;52.626;4.746;2022-08-18T14:37:23;101291.81;;;25.68;55.21
15314;BME280;7757;52.626;4.746;2022-08-18T14:39:51;101287.94;;;25.18;57.54
15314;BME280;7757;52.626;4.746;2022-08-18T14:42:17;101288.50;;;25.56;56.45
15314;BME280;7757;52.626;4.746;2022-08-18T14:44:45;101284.09;;;25.75;56.69
15314;BME280;7757;52.626;4.746;2022-08-18T14:47:13;101286.03;;;25.84;56.69
15314;BME280;7757;52.626;4.746;2022-08-18T14:49:40;101283.28;;;25.29;57.68
15314;BME280;7757;52.626;4.746;2022-08-18T14:52:07;101286.06;;;25.59;57.82
15314;BME280;7757;52.626;4.746;2022-08-18T14:54:34;101284.91;;;25.40;57.99
15314;BME280;7757;52.626;4.746;2022-08-18T14:57:03;101295.34;;;25.63;57.79
15314;BME280;7757;52.626;4.746;2022-08-18T14:59:34;101280.28;;;25.71;57.41
15314;BME280;7757;52.626;4.746;2022-08-18T15:02:00;101288.22;;;25.72;58.02
15314;BME280;7757;52.626;4.746;2022-08-18T15:04:27;101294.53;;;25.73;58.12
15314;BME280;7757;52.626;4.746;2022-08-18T15:06:53;101293.44;;;25.64;58.80
15314;BME280;7757;52.626;4.746;2022-08-18T15:09:20;101288.78;;;25.69;58.93
15314;BME280;7757;52.626;4.746;2022-08-18T15:11:47;101297.00;;;25.79;58.80
15314;BME280;7757;52.626;4.746;2022-08-18T15:14:17;101285.22;;;25.74;58.98
15314;BME280;7757;52.626;4.746;2022-08-18T15:16:43;101292.88;;;25.87;58.69
15314;BME280;7757;52.626;4.746;2022-08-18T15:19:12;101290.97;;;25.82;58.70
15314;BME280;7757;52.626;4.746;2022-08-18T15:21:39;101287.69;;;25.80;58.58
15314;BME280;7757;52.626;4.746;2022-08-18T15:24:23;101289.88;;;25.83;58.79
15314;BME280;7757;52.626;4.746;2022-08-18T15:27:07;101280.81;;;25.98;58.36
15314;BME280;7757;52.626;4.746;2022-08-18T15:29:35;101281.66;;;25.83;58.99
15314;BME280;7757;52.626;4.746;2022-08-18T15:32:02;101290.13;;;25.97;58.26
15314;BME280;7757;52.626;4.746;2022-08-18T15:34:29;101296.66;;;26.11;57.76
15314;BME280;7757;52.626;4.746;2022-08-18T15:36:55;101306.59;;;25.92;57.85
15314;BME280;7757;52.626;4.746;2022-08-18T15:39:22;101305.47;;;25.98;57.98
15314;BME280;7757;52.626;4.746;2022-08-18T15:41:49;101304.38;;;25.84;58.00
15314;BME280;7757;52.626;4.746;2022-08-18T15:44:17;101300.31;;;25.56;59.33
15314;BME280;7757;52.626;4.746;2022-08-18T15:46:45;101310.41;;;25.81;59.00
15314;BME280;7757;52.626;4.746;2022-08-18T15:49:13;101298.34;;;25.21;60.58
15314;BME280;7757;52.626;4.746;2022-08-18T15:51:40;101297.53;;;25.41;60.15
15314;BME280;7757;52.626;4.746;2022-08-18T15:54:08;101282.47;;;25.38;60.80
15314;BME280;7757;52.626;4.746;2022-08-18T15:56:35;101283.00;;;25.45;60.28
15314;BME280;7757;52.626;4.746;2022-08-18T15:59:03;101284.34;;;25.18;61.22
15314;BME280;7757;52.626;4.746;2022-08-18T16:01:34;101288.47;;;25.30;60.80
15314;BME280;7757;52.626;4.746;2022-08-18T16:04:04;101278.06;;;25.17;61.39
15314;BME280;7757;52.626;4.746;2022-08-18T16:06:31;101271.47;;;25.08;62.59
15314;BME280;7757;52.626;4.746;2022-08-18T16:09:00;101277.78;;;25.09;63.06
15314;BME280;7757;52.626;4.746;2022-08-18T16:11:27;101273.72;;;25.51;61.64
15314;BME280;7757;52.626;4.746;2022-08-18T16:13:54;101278.94;;;25.68;61.45
15314;BME280;7757;52.626;4.746;2022-08-18T16:16:23;101278.91;;;25.73;61.13
15314;BME280;7757;52.626;4.746;2022-08-18T16:18:50;101273.44;;;25.68;61.34
15314;BME280;7757;52.626;4.746;2022-08-18T16:21:21;101270.88;;;26.07;60.20
15314;BME280;7757;52.626;4.746;2022-08-18T16:23:50;101262.97;;;26.00;60.23
15314;BME280;7757;52.626;4.746;2022-08-18T16:26:18;101256.38;;;26.17;59.59
15314;BME280;7757;52.626;4.746;2022-08-18T16:28:46;101260.25;;;25.90;60.41
15314;BME280;7757;52.626;4.746;2022-08-18T16:31:14;101262.72;;;25.87;60.98
15314;BME280;7757;52.626;4.746;2022-08-18T16:33:41;101259.69;;;26.03;59.82
15314;BME280;7757;52.626;4.746;2022-08-18T16:36:09;101258.03;;;25.92;60.00
15314;BME280;7757;52.626;4.746;2022-08-18T16:38:40;101247.09;;;25.97;59.61
15314;BME280;7757;52.626;4.746;2022-08-18T16:41:09;101244.31;;;26.18;59.12
15314;BME280;7757;52.626;4.746;2022-08-18T16:43:37;101247.81;;;26.28;58.85
15314;BME280;7757;52.626;4.746;2022-08-18T16:46:08;101249.78;;;26.18;59.10
15314;BME280;7757;52.626;4.746;2022-08-18T16:48:35;101242.63;;;26.27;58.70
15314;BME280;7757;52.626;4.746;2022-08-18T16:51:01;101248.91;;;26.32;58.50
15314;BME280;7757;52.626;4.746;2022-08-18T16:53:28;101230.81;;;26.31;58.38
15314;BME280;7757;52.626;4.746;2022-08-18T16:55:56;101234.72;;;26.15;58.62
15314;BME280;7757;52.626;4.746;2022-08-18T16:58:22;101225.44;;;25.81;59.31
15314;BME280;7757;52.626;4.746;2022-08-18T17:01:07;101231.53;;;25.68;59.03
15314;BME280;7757;52.626;4.746;2022-08-18T17:03:51;101225.19;;;25.82;59.31
15314;BME280;7757;52.626;4.746;2022-08-18T17:06:33;101225.69;;;26.15;58.51
15314;BME280;7757;52.626;4.746;2022-08-18T17:09:00;101224.66;;;25.75;58.11
15314;BME280;7757;52.626;4.746;2022-08-18T17:11:29;101233.94;;;25.89;57.73
15314;BME280;7757;52.626;4.746;2022-08-18T17:13:57;101228.69;;;26.03;57.89
15314;BME280;7757;52.626;4.746;2022-08-18T17:16:26;101229.34;;;25.49;58.67
15314;BME280;7757;52.626;4.746;2022-08-18T17:18:53;101235.28;;;26.02;57.20
15314;BME280;7757;52.626;4.746;2022-08-18T17:21:21;101236.28;;;26.31;57.13
15314;BME280;7757;52.626;4.746;2022-08-18T17:23:49;101230.00;;;26.26;56.99
15314;BME280;7757;52.626;4.746;2022-08-18T17:26:36;101226.03;;;25.68;57.30
15314;BME280;7757;52.626;4.746;2022-08-18T17:29:09;101225.88;;;24.47;60.50
15314;BME280;7757;52.626;4.746;2022-08-18T17:31:41;101222.19;;;25.33;58.45
15314;BME280;7757;52.626;4.746;2022-08-18T17:34:12;101228.75;;;25.22;58.36
15314;BME280;7757;52.626;4.746;2022-08-18T17:36:43;101225.78;;;25.39;57.92
15314;BME280;7757;52.626;4.746;2022-08-18T17:39:13;101217.28;;;25.00;59.66
15314;BME280;7757;52.626;4.746;2022-08-18T17:41:43;101229.59;;;25.03;59.50
15314;BME280;7757;52.626;4.746;2022-08-18T17:44:29;101232.53;;;24.81;59.12
15314;BME280;7757;52.626;4.746;2022-08-18T17:46:57;101225.78;;;25.24;59.23
15314;BME280;7757;52.626;4.746;2022-08-18T17:49:31;101234.50;;;24.90;60.59
15314;BME280;7757;52.626;4.746;2022-08-18T17:52:17;101241.38;;;25.69;58.34
15314;BME280;7757;52.626;4.746;2022-08-18T17:54:48;101236.69;;;25.19;59.71
15314;BME280;7757;52.626;4.746;2022-08-18T17:57:21;101222.75;;;25.15;59.11
15314;BME280;7757;52.626;4.746;2022-08-18T17:59:54;101232.34;;;25.33;58.97
15314;BME280;7757;52.626;4.746;2022-08-18T18:02:23;101231.72;;;24.80;60.47
15314;BME280;7757;52.626;4.746;2022-08-18T18:04:50;101239.97;;;24.90;60.18
15314;BME280;7757;52.626;4.746;2022-08-18T18:07:20;101235.84;;;24.83;59.88
15314;BME280;7757;52.626;4.746;2022-08-18T18:09:52;101244.09;;;25.08;59.70
15314;BME280;7757;52.626;4.746;2022-08-18T18:12:23;101241.22;;;24.63;60.55
15314;BME280;7757;52.626;4.746;2022-08-18T18:14:50;101237.97;;;24.71;60.58
15314;BME280;7757;52.626;4.746;2022-08-18T18:17:19;101239.84;;;24.50;60.91
15314;BME280;7757;52.626;4.746;2022-08-18T18:19:49;101234.50;;;25.16;59.55
15314;BME280;7757;52.626;4.746;2022-08-18T18:22:19;101242.19;;;25.24;59.20
15314;BME280;7757;52.626;4.746;2022-08-18T18:24:51;101242.59;;;24.65;60.68
15314;BME280;7757;52.626;4.746;2022-08-18T18:27:25;101246.44;;;24.74;60.30
15314;BME280;7757;52.626;4.746;2022-08-18T18:29:54;101245.59;;;24.02;62.44
15314;BME280;7757;52.626;4.746;2022-08-18T18:32:24;101239.03;;;24.60;60.92
15314;BME280;7757;52.626;4.746;2022-08-18T18:35:07;101238.09;;;25.06;59.70
15314;BME280;7757;52.626;4.746;2022-08-18T18:37:43;101240.03;;;23.86;62.26
15314;BME280;7757;52.626;4.746;2022-08-18T18:40:21;101242.53;;;24.45;60.82
15314;BME280;7757;52.626;4.746;2022-08-18T18:42:49;101223.19;;;24.05;61.87
15314;BME280;7757;52.626;4.746;2022-08-18T18:45:21;101227.25;;;23.97;63.47
15314;BME280;7757;52.626;4.746;2022-08-18T18:48:01;101240.56;;;23.88;63.06
15314;BME280;7757;52.626;4.746;2022-08-18T18:50:37;101233.06;;;24.68;60.38
15314;BME280;7757;52.626;4.746;2022-08-18T18:53:13;101246.38;;;23.97;62.93
15314;BME280;7757;52.626;4.746;2022-08-18T18:55:50;101241.88;;;23.39;65.07
15314;BME280;7757;52.626;4.746;2022-08-18T18:58:27;101244.78;;;24.06;63.70
15314;BME280;7757;52.626;4.746;2022-08-18T19:00:59;101243.31;;;23.20;65.14
15314;BME280;7757;52.626;4.746;2022-08-18T19:03:32;101240.84;;;23.87;63.54
15314;BME280;7757;52.626;4.746;2022-08-18T19:06:10;101240.06;;;24.38;61.78
15314;BME280;7757;52.626;4.746;2022-08-18T19:08:47;101236.56;;;23.27;65.31
15314;BME280;7757;52.626;4.746;2022-08-18T19:11:25;101239.63;;;23.68;63.68
15314;BME280;7757;52.626;4.746;2022-08-18T19:14:00;101239.69;;;23.78;63.91
15314;BME280;7757;52.626;4.746;2022-08-18T19:16:30;101234.34;;;23.98;63.62
15314;BME280;7757;52.626;4.746;2022-08-18T19:19:02;101239.78;;;23.51;64.52
15314;BME280;7757;52.626;4.746;2022-08-18T19:21:30;101233.75;;;23.44;63.92
15314;BME280;7757;52.626;4.746;2022-08-18T19:24:02;101243.81;;;24.22;62.34
15314;BME280;7757;52.626;4.746;2022-08-18T19:26:34;101237.84;;;23.47;63.75
15314;BME280;7757;52.626;4.746;2022-08-18T19:29:08;101239.38;;;23.38;64.82
15314;BME280;7757;52.626;4.746;2022-08-18T19:31:38;101241.13;;;24.32;62.85
15314;BME280;7757;52.626;4.746;2022-08-18T19:34:07;101236.00;;;23.57;63.74